sensor_id;sensor_type;location;lat;lon;timestamp;P1;durP1;ratioP1;P2;durP2;ratioP2
1995;SDS011;38556;47.068;15.408;2022-10-30T14:19:21;21.37;;;19.03;;
1995;SDS011;38556;47.068;15.408;2022-10-30T14:21:49;22.50;;;18.97;;
1995;SDS011;38556;47.068;15.408;2022-10-30T14:24:19;19.13;;;17.27;;
1995;SDS011;38556;47.068;15.408;2022-10-30T14:26:50;30.70;;;28.70;;
1995;SDS011;38556;47.068;15.408;2022-10-30T14:32:47;19.77;;;18.30;;
1995;SDS011;38556;47.068;15.408;2022-10-30T14:38:23;23.97;;;22.13;;
1995;SDS011;38556;47.068;15.408;2022-10-30T14:41:03;19.20;;;17.87;;
1995;SDS011;38556;47.068;15.408;2022-10-30T14:43:51;22.37;;;20.40;;
1995;SDS011;38556;47.068;15.408;2022-10-30T14:46:27;26.60;;;24.70;;
1995;SDS011;38556;47.068;15.408;2022-10-30T14:49:01;24.03;;;22.03;;
1995;SDS011;38556;47.068;15.408;2022-10-30T14:51:44;22.23;;;20.63;;
1995;SDS011;38556;47.068;15.408;2022-10-30T14:54:19;25.83;;;23.30;;
1995;SDS011;38556;47.068;15.408;2022-10-30T14:56:50;24.77;;;22.90;;
1995;SDS011;38556;47.068;15.408;2022-10-30T14:59:19;22.70;;;21.03;;
1995;SDS011;38556;47.068;15.408;2022-10-30T15:01:52;21.60;;;20.10;;
1995;SDS011;38556;47.068;15.408;2022-10-30T15:04:26;22.20;;;20.30;;
1995;SDS011;38556;47.068;15.408;2022-10-30T15:07:04;21.63;;;20.10;;
1995;SDS011;38556;47.068;15.408;2022-10-30T15:09:47;21.00;;;19.40;;
1995;SDS011;38556;47.068;15.408;2022-10-30T15:12:40;20.20;;;19.00;;
1995;SDS011;38556;47.068;15.408;2022-10-30T15:15:24;22.00;;;20.20;;
1995;SDS011;38556;47.068;15.408;2022-10-30T15:17:53;20.50;;;19.00;;
1995;SDS011;38556;47.068;15.408;2022-10-30T15:20:24;20.50;;;19.07;;
1995;SDS011;38556;47.068;15.408;2022-10-30T15:22:56;21.70;;;19.70;;
1995;SDS011;38556;47.068;15.408;2022-10-30T15:25:28;21.40;;;19.93;;
1995;SDS011;38556;47.068;15.408;2022-10-30T15:28:00;20.33;;;19.03;;
1995;SDS011;38556;47.068;15.408;2022-10-30T15:30:27;20.50;;;19.20;;
1995;SDS011;38556;47.068;15.408;2022-10-30T15:32:55;22.23;;;20.37;;
1995;SDS011;38556;47.068;15.408;2022-10-30T15:35:23;22.60;;;20.50;;
1995;SDS011;38556;47.068;15.408;2022-10-30T15:38:00;21.83;;;20.43;;
1995;SDS011;38556;47.068;15.408;2022-10-30T15:40:29;21.63;;;19.90;;
1995;SDS011;38556;47.068;15.408;2022-10-30T15:42:57;22.50;;;20.50;;
1995;SDS011;38556;47.068;15.408;2022-10-30T15:45:28;21.20;;;19.60;;
1995;SDS011;38556;47.068;15.408;2022-10-30T15:48:00;21.20;;;19.70;;
1995;SDS011;38556;47.068;15.408;2022-10-30T15:50:31;21.73;;;19.70;;
1995;SDS011;38556;47.068;15.408;2022-10-30T15:53:01;21.73;;;20.13;;
1995;SDS011;38556;47.068;15.408;2022-10-30T15:55:29;22.27;;;20.57;;
1995;SDS011;38556;47.068;15.408;2022-10-30T15:57:58;23.20;;;21.47;;
1995;SDS011;38556;47.068;15.408;2022-10-30T16:00:29;23.67;;;21.47;;
1995;SDS011;38556;47.068;15.408;2022-10-30T16:02:59;23.30;;;21.43;;
1995;SDS011;38556;47.068;15.408;2022-10-30T16:05:28;22.87;;;21.17;;
1995;SDS011;38556;47.068;15.408;2022-10-30T16:07:57;22.17;;;20.63;;
1995;SDS011;38556;47.068;15.408;2022-10-30T16:10:29;23.13;;;21.13;;
1995;SDS011;38556;47.068;15.408;2022-10-30T16:12:59;23.53;;;21.13;;
1995;SDS011;38556;47.068;15.408;2022-10-30T16:15:28;22.10;;;20.60;;
1995;SDS011;38556;47.068;15.408;2022-10-30T16:18:01;23.77;;;21.90;;
1995;SDS011;38556;47.068;15.408;2022-10-30T16:20:33;22.07;;;20.47;;
1995;SDS011;38556;47.068;15.408;2022-10-30T16:23:02;22.43;;;20.93;;
1995;SDS011;38556;47.068;15.408;2022-10-30T16:25:32;22.20;;;20.57;;
1995;SDS011;38556;47.068;15.408;2022-10-30T16:28:02;22.07;;;20.37;;
1995;SDS011;38556;47.068;15.408;2022-10-30T16:30:31;21.60;;;20.00;;
1995;SDS011;38556;47.068;15.408;2022-10-30T16:33:00;21.47;;;20.03;;
1995;SDS011;38556;47.068;15.408;2022-10-30T16:35:29;21.67;;;19.80;;
1995;SDS011;38556;47.068;15.408;2022-10-30T16:37:57;22.43;;;20.53;;
1995;SDS011;38556;47.068;15.408;2022-10-30T16:40:27;22.77;;;20.87;;
1995;SDS011;38556;47.068;15.408;2022-10-30T16:42:57;22.97;;;21.17;;
1995;SDS011;38556;47.068;15.408;2022-10-30T16:48:18;24.37;;;22.53;;
1995;SDS011;38556;47.068;15.408;2022-10-30T16:50:57;25.30;;;23.07;;
1995;SDS011;38556;47.068;15.408;2022-10-30T16:53:26;22.90;;;21.30;;
1995;SDS011;38556;47.068;15.408;2022-10-30T16:55:55;24.50;;;22.27;;
1995;SDS011;38556;47.068;15.408;2022-10-30T16:58:25;24.40;;;22.10;;
1995;SDS011;38556;47.068;15.408;2022-10-30T17:00:59;22.30;;;20.90;;
1995;SDS011;38556;47.068;15.408;2022-10-30T17:03:30;25.03;;;22.60;;
1995;SDS011;38556;47.068;15.408;2022-10-30T17:06:03;24.83;;;22.93;;
1995;SDS011;38556;47.068;15.408;2022-10-30T17:08:36;25.77;;;23.57;;
1995;SDS011;38556;47.068;15.408;2022-10-30T17:11:14;26.67;;;24.23;;
1995;SDS011;38556;47.068;15.408;2022-10-30T17:13:58;26.40;;;24.20;;
1995;SDS011;38556;47.068;15.408;2022-10-30T17:16:29;26.57;;;24.37;;
1995;SDS011;38556;47.068;15.408;2022-10-30T17:18:58;25.30;;;23.23;;
1995;SDS011;38556;47.068;15.408;2022-10-30T17:21:49;28.40;;;25.80;;
1995;SDS011;38556;47.068;15.408;2022-10-30T17:24:18;28.27;;;25.97;;
1995;SDS011;38556;47.068;15.408;2022-10-30T17:26:52;26.00;;;23.77;;
1995;SDS011;38556;47.068;15.408;2022-10-30T17:32:16;26.50;;;24.00;;
1995;SDS011;38556;47.068;15.408;2022-10-30T17:34:45;25.17;;;23.03;;
1995;SDS011;38556;47.068;15.408;2022-10-30T17:37:13;25.33;;;23.23;;
1995;SDS011;38556;47.068;15.408;2022-10-30T17:39:41;28.07;;;25.60;;
1995;SDS011;38556;47.068;15.408;2022-10-30T17:42:10;26.70;;;24.20;;
1995;SDS011;38556;47.068;15.408;2022-10-30T17:44:37;28.40;;;25.57;;
1995;SDS011;38556;47.068;15.408;2022-10-30T17:47:11;25.90;;;23.90;;
1995;SDS011;38556;47.068;15.408;2022-10-30T17:49:43;28.33;;;25.50;;
1995;SDS011;38556;47.068;15.408;2022-10-30T17:52:11;26.53;;;24.40;;
1995;SDS011;38556;47.068;15.408;2022-10-30T17:54:41;28.17;;;25.70;;
1995;SDS011;38556;47.068;15.408;2022-10-30T17:57:10;27.60;;;25.00;;
1995;SDS011;38556;47.068;15.408;2022-10-30T17:59:40;25.70;;;23.70;;
1995;SDS011;38556;47.068;15.408;2022-10-30T18:02:12;28.03;;;25.60;;
1995;SDS011;38556;47.068;15.408;2022-10-30T18:04:42;28.23;;;25.63;;
1995;SDS011;38556;47.068;15.408;2022-10-30T18:07:10;26.47;;;23.77;;
1995;SDS011;38556;47.068;15.408;2022-10-30T18:09:39;28.23;;;26.10;;
1995;SDS011;38556;47.068;15.408;2022-10-30T18:12:09;27.00;;;24.30;;
1995;SDS011;38556;47.068;15.408;2022-10-30T18:14:39;26.17;;;24.17;;
1995;SDS011;38556;47.068;15.408;2022-10-30T18:17:07;26.40;;;24.10;;
1995;SDS011;38556;47.068;15.408;2022-10-30T18:19:38;26.10;;;23.63;;
1995;SDS011;38556;47.068;15.408;2022-10-30T18:22:08;26.23;;;23.83;;
1995;SDS011;38556;47.068;15.408;2022-10-30T18:24:36;26.80;;;24.50;;
1995;SDS011;38556;47.068;15.408;2022-10-30T18:27:07;26.80;;;24.33;;
1995;SDS011;38556;47.068;15.408;2022-10-30T18:29:36;26.50;;;24.10;;
1995;SDS011;38556;47.068;15.408;2022-10-30T18:32:04;28.37;;;25.80;;
1995;SDS011;38556;47.068;15.408;2022-10-30T18:34:34;27.97;;;25.77;;
1995;SDS011;38556;47.068;15.408;2022-10-30T18:37:03;29.60;;;27.20;;
1995;SDS011;38556;47.068;15.408;2022-10-30T18:39:31;29.40;;;26.60;;
1995;SDS011;38556;47.068;15.408;2022-10-30T18:42:00;30.50;;;27.60;;
1995;SDS011;38556;47.068;15.408;2022-10-30T18:44:28;27.57;;;25.20;;
1995;SDS011;38556;47.068;15.408;2022-10-30T18:46:56;28.47;;;25.93;;
1995;SDS011;38556;47.068;15.408;2022-10-30T18:49:25;28.33;;;25.80;;
1995;SDS011;38556;47.068;15.408;2022-10-30T18:51:57;28.80;;;26.00;;
1995;SDS011;38556;47.068;15.408;2022-10-30T18:54:28;26.50;;;24.17;;
1995;SDS011;38556;47.068;15.408;2022-10-30T18:56:56;27.17;;;24.70;;
1995;SDS011;38556;47.068;15.408;2022-10-30T18:59:24;25.83;;;23.80;;
1995;SDS011;38556;47.068;15.408;2022-10-30T19:01:53;28.33;;;25.70;;
1995;SDS011;38556;47.068;15.408;2022-10-30T19:04:22;26.03;;;23.60;;
1995;SDS011;38556;47.068;15.408;2022-10-30T19:06:51;29.00;;;26.53;;
1995;SDS011;38556;47.068;15.408;2022-10-30T19:09:21;27.23;;;24.77;;
1995;SDS011;38556;47.068;15.408;2022-10-30T19:11:51;29.43;;;26.83;;
1995;SDS011;38556;47.068;15.408;2022-10-30T19:14:20;34.40;;;30.73;;
1995;SDS011;38556;47.068;15.408;2022-10-30T19:16:48;29.73;;;27.23;;
1995;SDS011;38556;47.068;15.408;2022-10-30T19:19:17;27.57;;;24.83;;
1995;SDS011;38556;47.068;15.408;2022-10-30T19:21:44;31.83;;;29.07;;
1995;SDS011;38556;47.068;15.408;2022-10-30T19:24:13;27.83;;;25.60;;
1995;SDS011;38556;47.068;15.408;2022-10-30T19:26:42;29.60;;;26.93;;
1995;SDS011;38556;47.068;15.408;2022-10-30T19:29:12;27.73;;;25.40;;
1995;SDS011;38556;47.068;15.408;2022-10-30T19:31:40;26.87;;;24.57;;
1995;SDS011;38556;47.068;15.408;2022-10-30T19:34:09;27.00;;;24.80;;
1995;SDS011;38556;47.068;15.408;2022-10-30T19:36:38;24.87;;;23.00;;
1995;SDS011;38556;47.068;15.408;2022-10-30T19:39:09;27.93;;;25.73;;
1995;SDS011;38556;47.068;15.408;2022-10-30T19:41:39;25.60;;;23.10;;
1995;SDS011;38556;47.068;15.408;2022-10-30T19:44:09;25.83;;;23.80;;
1995;SDS011;38556;47.068;15.408;2022-10-30T19:46:40;25.87;;;23.63;;
1995;SDS011;38556;47.068;15.408;2022-10-30T19:49:12;30.00;;;27.20;;
1995;SDS011;38556;47.068;15.408;2022-10-30T19:51:49;27.03;;;24.47;;
1995;SDS011;38556;47.068;15.408;2022-10-30T19:54:19;27.23;;;24.93;;
1995;SDS011;38556;47.068;15.408;2022-10-30T19:56:48;31.30;;;28.13;;
1995;SDS011;38556;47.068;15.408;2022-10-30T19:59:18;28.20;;;25.93;;
1995;SDS011;38556;47.068;15.408;2022-10-30T20:01:52;28.17;;;25.60;;
1995;SDS011;38556;47.068;15.408;2022-10-30T20:04:19;48.20;;;42.33;;
1995;SDS011;38556;47.068;15.408;2022-10-30T20:06:52;48.20;;;38.17;;
1995;SDS011;38556;47.068;15.408;2022-10-30T20:09:20;163.00;;;99.60;;
1995;SDS011;38556;47.068;15.408;2022-10-30T20:11:50;57.73;;;44.73;;
1995;SDS011;38556;47.068;15.408;2022-10-30T20:14:19;52.00;;;40.40;;
1995;SDS011;38556;47.068;15.408;2022-10-30T20:16:47;60.40;;;44.53;;
1995;SDS011;38556;47.068;15.408;2022-10-30T20:19:22;51.63;;;38.80;;
1995;SDS011;38556;47.068;15.408;2022-10-30T20:21:54;33.27;;;29.90;;
1995;SDS011;38556;47.068;15.408;2022-10-30T20:24:23;25.70;;;23.00;;
1995;SDS011;38556;47.068;15.408;2022-10-30T20:26:51;26.73;;;24.10;;
1995;SDS011;38556;47.068;15.408;2022-10-30T20:29:23;26.67;;;24.00;;
1995;SDS011;38556;47.068;15.408;2022-10-30T20:31:51;28.23;;;25.87;;
1995;SDS011;38556;47.068;15.408;2022-10-30T20:34:19;29.57;;;26.80;;
1995;SDS011;38556;47.068;15.408;2022-10-30T20:36:50;33.70;;;30.33;;
1995;SDS011;38556;47.068;15.408;2022-10-30T20:39:18;28.23;;;25.83;;
1995;SDS011;38556;47.068;15.408;2022-10-30T20:41:46;58.30;;;48.40;;
1995;SDS011;38556;47.068;15.408;2022-10-30T20:44:14;102.57;;;66.60;;
1995;SDS011;38556;47.068;15.408;2022-10-30T20:46:43;73.40;;;55.50;;
1995;SDS011;38556;47.068;15.408;2022-10-30T20:49:11;39.90;;;35.63;;
1995;SDS011;38556;47.068;15.408;2022-10-30T20:51:39;73.07;;;50.80;;
1995;SDS011;38556;47.068;15.408;2022-10-30T20:54:07;82.93;;;58.13;;
1995;SDS011;38556;47.068;15.408;2022-10-30T20:56:35;57.87;;;46.20;;
1995;SDS011;38556;47.068;15.408;2022-10-30T20:59:03;41.67;;;37.17;;
1995;SDS011;38556;47.068;15.408;2022-10-30T21:01:31;29.97;;;27.20;;
1995;SDS011;38556;47.068;15.408;2022-10-30T21:04:01;33.67;;;30.20;;
1995;SDS011;38556;47.068;15.408;2022-10-30T21:06:29;32.57;;;29.87;;
1995;SDS011;38556;47.068;15.408;2022-10-30T21:08:56;28.83;;;26.53;;
1995;SDS011;38556;47.068;15.408;2022-10-30T21:11:24;27.37;;;25.23;;
1995;SDS011;38556;47.068;15.408;2022-10-30T21:13:53;27.70;;;25.67;;
1995;SDS011;38556;47.068;15.408;2022-10-30T21:16:21;28.90;;;26.67;;
1995;SDS011;38556;47.068;15.408;2022-10-30T21:18:49;29.37;;;26.80;;
1995;SDS011;38556;47.068;15.408;2022-10-30T21:21:19;29.80;;;27.60;;
1995;SDS011;38556;47.068;15.408;2022-10-30T21:23:46;30.02;;;27.42;;
1995;SDS011;38556;47.068;15.408;2022-10-30T21:26:14;28.60;;;26.40;;
1995;SDS011;38556;47.068;15.408;2022-10-30T21:28:42;30.10;;;27.43;;
1995;SDS011;38556;47.068;15.408;2022-10-30T21:31:10;28.45;;;25.98;;
1995;SDS011;38556;47.068;15.408;2022-10-30T21:33:39;28.33;;;26.03;;
1995;SDS011;38556;47.068;15.408;2022-10-30T21:36:08;32.33;;;28.50;;
1995;SDS011;38556;47.068;15.408;2022-10-30T21:38:39;28.03;;;25.60;;
1995;SDS011;38556;47.068;15.408;2022-10-30T21:41:08;28.23;;;25.40;;
1995;SDS011;38556;47.068;15.408;2022-10-30T21:43:35;30.07;;;27.33;;
1995;SDS011;38556;47.068;15.408;2022-10-30T21:46:03;28.23;;;26.02;;
1995;SDS011;38556;47.068;15.408;2022-10-30T21:48:31;28.33;;;26.02;;
1995;SDS011;38556;47.068;15.408;2022-10-30T21:51:03;27.90;;;25.73;;
1995;SDS011;38556;47.068;15.408;2022-10-30T21:53:32;29.33;;;26.80;;
1995;SDS011;38556;47.068;15.408;2022-10-30T21:56:03;28.77;;;26.17;;
1995;SDS011;38556;47.068;15.408;2022-10-30T21:58:32;29.23;;;26.45;;
1995;SDS011;38556;47.068;15.408;2022-10-30T22:00:59;26.50;;;24.37;;
1995;SDS011;38556;47.068;15.408;2022-10-30T22:03:27;27.58;;;25.20;;
1995;SDS011;38556;47.068;15.408;2022-10-30T22:05:54;29.35;;;27.00;;
1995;SDS011;38556;47.068;15.408;2022-10-30T22:08:21;26.40;;;24.40;;
1995;SDS011;38556;47.068;15.408;2022-10-30T22:10:49;27.83;;;25.10;;
1995;SDS011;38556;47.068;15.408;2022-10-30T22:13:18;29.63;;;26.47;;
1995;SDS011;38556;47.068;15.408;2022-10-30T22:15:52;28.67;;;26.30;;
1995;SDS011;38556;47.068;15.408;2022-10-30T22:18:19;28.25;;;25.55;;
1995;SDS011;38556;47.068;15.408;2022-10-30T22:20:47;26.20;;;24.17;;
1995;SDS011;38556;47.068;15.408;2022-10-30T22:23:15;28.52;;;24.83;;
1995;SDS011;38556;47.068;15.408;2022-10-30T22:25:42;27.70;;;24.80;;
1995;SDS011;38556;47.068;15.408;2022-10-30T22:28:09;25.95;;;23.88;;
1995;SDS011;38556;47.068;15.408;2022-10-30T22:30:38;26.45;;;24.33;;
1995;SDS011;38556;47.068;15.408;2022-10-30T22:33:06;27.92;;;25.58;;
1995;SDS011;38556;47.068;15.408;2022-10-30T22:35:36;26.45;;;24.15;;
1995;SDS011;38556;47.068;15.408;2022-10-30T22:38:03;27.15;;;24.80;;
1995;SDS011;38556;47.068;15.408;2022-10-30T22:40:30;29.83;;;26.17;;
1995;SDS011;38556;47.068;15.408;2022-10-30T22:42:58;26.75;;;24.55;;
1995;SDS011;38556;47.068;15.408;2022-10-30T22:45:25;25.67;;;23.67;;
1995;SDS011;38556;47.068;15.408;2022-10-30T22:47:54;27.13;;;24.95;;
1995;SDS011;38556;47.068;15.408;2022-10-30T22:50:21;27.02;;;24.83;;
1995;SDS011;38556;47.068;15.408;2022-10-30T22:52:49;27.58;;;25.10;;
1995;SDS011;38556;47.068;15.408;2022-10-30T22:55:16;27.27;;;25.17;;
1995;SDS011;38556;47.068;15.408;2022-10-30T22:57:44;26.98;;;24.52;;
1995;SDS011;38556;47.068;15.408;2022-10-30T23:00:11;26.20;;;24.20;;
1995;SDS011;38556;47.068;15.408;2022-10-30T23:02:39;26.98;;;24.52;;
1995;SDS011;38556;47.068;15.408;2022-10-30T23:05:08;26.52;;;24.60;;
1995;SDS011;38556;47.068;15.408;2022-10-30T23:07:36;27.30;;;24.50;;
1995;SDS011;38556;47.068;15.408;2022-10-30T23:10:03;25.95;;;23.85;;
1995;SDS011;38556;47.068;15.408;2022-10-30T23:12:32;25.17;;;23.13;;
1995;SDS011;38556;47.068;15.408;2022-10-30T23:14:59;26.00;;;23.55;;
1995;SDS011;38556;47.068;15.408;2022-10-30T23:17:27;26.60;;;24.60;;
1995;SDS011;38556;47.068;15.408;2022-10-30T23:19:54;26.02;;;23.88;;
1995;SDS011;38556;47.068;15.408;2022-10-30T23:22:23;27.40;;;25.05;;
1995;SDS011;38556;47.068;15.408;2022-10-30T23:24:50;28.67;;;25.77;;
1995;SDS011;38556;47.068;15.408;2022-10-30T23:27:17;29.05;;;26.02;;
1995;SDS011;38556;47.068;15.408;2022-10-30T23:29:45;28.17;;;25.70;;
1995;SDS011;38556;47.068;15.408;2022-10-30T23:32:13;28.40;;;25.42;;
1995;SDS011;38556;47.068;15.408;2022-10-30T23:34:41;27.92;;;25.58;;
1995;SDS011;38556;47.068;15.408;2022-10-30T23:37:08;28.08;;;25.75;;
1995;SDS011;38556;47.068;15.408;2022-10-30T23:39:37;28.50;;;25.90;;
1995;SDS011;38556;47.068;15.408;2022-10-30T23:42:04;28.60;;;25.83;;
1995;SDS011;38556;47.068;15.408;2022-10-30T23:44:32;27.65;;;25.23;;
1995;SDS011;38556;47.068;15.408;2022-10-30T23:46:59;27.05;;;24.80;;
1995;SDS011;38556;47.068;15.408;2022-10-30T23:49:27;27.45;;;25.50;;
1995;SDS011;38556;47.068;15.408;2022-10-30T23:51:54;29.63;;;26.85;;
1995;SDS011;38556;47.068;15.408;2022-10-30T23:54:22;27.65;;;25.48;;
1995;SDS011;38556;47.068;15.408;2022-10-30T23:56:51;28.27;;;26.08;;
1995;SDS011;38556;47.068;15.408;2022-10-30T23:59:18;27.13;;;24.92;;
